Dumfries, Virginia
Current Conditions -  °F | °C
As of 1:56 PM on Saturday 25 Oct 2014 (Local Time) from KNYG Reporting Station
Few Clouds Few Clouds  
Wind Chill: 72°   Ceiling: Unl
Heat Index: 72°   Visibility: 10mi
Dew Point: 30°   Wind: 7mph
Humidity: 21%   Direction: NA
Pressure: 29.87"   Gusts: 18mph
Location:  38.57°N, 77.33°W
Report Text: KNYG 251756Z VRB06G16KT 10SM FEW040 22/M01 A2987 RMK AO2 SLP116 T02221011 10222 20061 56037 $
Loading
Personal Weather Stations






























Interactive Weather Map
Tropical Storm Tracking
New forecast layout! Learn more

10-Day Weather Forecast

Advertisements
Track Severe Weather on mobile